Flight Track Log - Related Links

Times and Time Zones

All times are in EDT time to prevent confusion due to time zone crossing. See the N50SH flight status page for this flight to view local times or setup timezone preferences in your user account.

Time Position Orientation Groundspeed Altitude Reporting Facility
EDT Latitude Longitude Course Direction KTS MPH feet Rate Location/Type
Thu 02:20:52 PM 42.9494 -73.7419 189° South 137 158 6,600  Level Boston Center
Thu 02:21:52 PM 42.9139 -73.7497 187° South 133 153 7,100 645 Climbing Boston Center
Thu 02:22:53 PM 42.8700 -73.7575 182° South 143 165 7,900 793 Climbing Boston Center
Thu 02:23:53 PM 42.8283 -73.7594 195° South 146 168 8,700 574 Climbing Boston Center
Thu 02:24:48 PM 42.7992 -73.7700 198° South 140 161 9,000 -52 Climbing Boston Center
Thu 02:25:49 PM 42.7572 -73.7889 200° South 156 180 8,600 -188 Descending Boston Center
Thu 02:26:56 PM 42.7089 -73.8133 197° South 150 173 8,600  Level Boston Center
Thu 02:27:56 PM 42.6711 -73.8294 199° South 151 174 8,600  Level Boston Center
Thu 02:28:57 PM 42.6314 -73.8483 201° Southwest 154 177 8,600  Level Boston Center
Thu 02:29:58 PM 42.5894 -73.8700 198° South 153 176 8,600  Level Boston Center
Thu 02:30:46 PM 42.5539 -73.8861 200° South 157 181 8,600  Level Boston Center
Thu 02:31:53 PM 42.5097 -73.9075 202° Southwest 161 185 8,600  Level Boston Center
Thu 02:32:54 PM 42.4697 -73.9292 191° South 154 177 8,600  Level Boston Center
Thu 02:33:27 PM 42.4511 -73.9342 193° South 148 170 8,600  Level Boston Center
Thu 02:34:27 PM 42.4092 -73.9472 185° South 152 175 8,600  Level Boston Center
Thu 02:35:27 PM 42.3675 -73.9519 193° South 170 196 8,600  Level Boston Center
Thu 02:36:27 PM 42.3172 -73.9675 194° South 175 201 8,600  Level Boston Center
Thu 02:37:27 PM 42.2794 -73.9806 186° South 170 196 8,600  Level Boston Center
Thu 02:38:27 PM 42.2294 -73.9878 188° South 160 184 8,600  Level Boston Center
Thu 02:39:27 PM 42.1897 -73.9953 189° South 160 184 8,600  Level Boston Center
Thu 02:40:27 PM 42.1417 -74.0053 195° South 160 184 8,600  Level Boston Center
Thu 02:41:27 PM 42.1061 -74.0183 194° South 160 184 8,600  Level Boston Center
Thu 02:42:27 PM 42.0600 -74.0339 197° South 160 184 8,600  Level Boston Center
Thu 02:43:27 PM 42.0222 -74.0497 192° South 165 190 8,600  Level Boston Center
Thu 02:44:27 PM 41.9761 -74.0625 192° South 165 190 8,600  Level Boston Center
Thu 02:45:27 PM 41.9406 -74.0728 186° South 160 184 8,600  Level Boston Center
Thu 02:46:27 PM 41.8925 -74.0800 191° South 160 184 8,600  Level Boston Center
Thu 02:47:27 PM 41.8547 -74.0900 190° South 160 184 8,600  Level Boston Center
Thu 02:48:27 PM 41.8108 -74.1000 192° South 160 184 8,600  Level Boston Center
Thu 02:49:27 PM 41.7733 -74.1103 189° South 149 171 8,600  Level Boston Center
Thu 02:50:27 PM 41.7378 -74.1178 193° South 143 165 8,600  Level Boston Center
Thu 02:51:27 PM 41.6958 -74.1306 190° South 143 165 8,600  Level Boston Center
Thu 02:52:27 PM 41.6519 -74.1406 194° South 148 170 8,600  Level Boston Center
Thu 02:53:27 PM 41.6142 -74.1533 192° South 154 177 8,600  Level Boston Center
Thu 02:54:27 PM 41.5703 -74.1661 192° South 154 177 8,600  Level Boston Center
Thu 02:55:27 PM 41.5264 -74.1786 196° South 154 177 8,600  Level Boston Center
Thu 02:56:27 PM 41.4864 -74.1942 195° South 159 183 8,600  Level Boston Center
Thu 02:57:27 PM 41.4508 -74.2069 195° South 159 183 8,600  Level Boston Center
Thu 02:58:27 PM 41.4067 -74.2225 198° South 153 176 8,600 -150 Level Boston Center
Thu 02:59:27 PM 41.3711 -74.2381 187° South 153 176 8,300 -729 Descending Boston Center
Thu 03:00:47 PM 41.3000 -74.2500 180° South 189 217 6,900 -986 Descending New York TRACON
Thu 03:01:47 PM 41.2500 -74.2500 201° Southwest 179 206 6,000 -793 Descending New York TRACON
Thu 03:02:48 PM 41.2167 -74.2667 228° Southwest 171 197 5,300 -694 Descending New York TRACON
Thu 03:03:48 PM 41.1833 -74.3167 180° South 161 185 4,600 -720 Descending New York TRACON
Thu 03:04:53 PM 41.1333 -74.3167 166° South 161 185 3,800 -700 Descending New York TRACON
Thu 03:05:48 PM 41.0833 -74.3000 201° Southwest 167 192 3,200 -574 Descending New York TRACON
Thu 03:06:48 PM 41.0500 -74.3167 201° Southwest 178 205 2,700 -500 Descending New York TRACON

Login

Don't have an account? Register now (free) for customized features, flight alerts, and more!